createdAt,value
2022-11-06T00:01:15.616Z,1.40
2022-11-06T00:03:43.177Z,1.48
2022-11-06T00:06:30.606Z,1.50
2022-11-06T00:08:59.926Z,1.55
2022-11-06T00:11:26.621Z,1.65
2022-11-06T00:13:53.158Z,1.55
2022-11-06T00:16:20.309Z,1.50
2022-11-06T00:18:47.845Z,1.60
2022-11-06T00:21:22.835Z,1.30
2022-11-06T00:23:49.961Z,1.50
2022-11-06T00:26:21.770Z,1.33
2022-11-06T00:28:49.328Z,1.77
2022-11-06T00:31:21.592Z,1.55
2022-11-06T00:33:48.395Z,1.63
2022-11-06T00:36:18.101Z,1.60
2022-11-06T00:38:44.983Z,1.70
2022-11-06T00:41:14.178Z,1.70
2022-11-06T00:43:41.769Z,1.40
2022-11-06T00:46:11.138Z,1.58
2022-11-06T00:48:39.051Z,1.67
2022-11-06T00:51:13.237Z,1.45
2022-11-06T00:53:40.572Z,1.77
2022-11-06T00:56:12.889Z,1.63
2022-11-06T00:58:40.525Z,1.60
2022-11-06T01:01:12.079Z,1.30
2022-11-06T01:03:40.354Z,1.42
2022-11-06T01:06:12.497Z,1.63
2022-11-06T01:08:39.781Z,1.40
2022-11-06T01:11:13.940Z,1.60
2022-11-06T01:13:40.882Z,1.60
2022-11-06T01:16:10.418Z,1.60
2022-11-06T01:18:38.141Z,1.83
2022-11-06T01:21:07.640Z,1.52
2022-11-06T01:23:34.691Z,1.65
2022-11-06T01:26:03.603Z,1.27
2022-11-06T01:28:30.614Z,1.35
2022-11-06T01:30:57.394Z,1.40
2022-11-06T01:33:23.926Z,1.80
2022-11-06T01:35:52.053Z,1.48
2022-11-06T01:38:18.740Z,1.60
2022-11-06T01:40:47.533Z,1.60
2022-11-06T01:43:23.818Z,1.40
2022-11-06T01:45:55.312Z,1.30
2022-11-06T01:48:28.197Z,1.67
2022-11-06T01:50:57.953Z,1.42
2022-11-06T01:53:25.749Z,1.60
2022-11-06T01:55:56.079Z,1.42
2022-11-06T01:58:26.029Z,1.50
2022-11-06T02:00:52.817Z,1.27
2022-11-06T02:03:19.658Z,1.50
2022-11-06T02:05:46.643Z,1.60
2022-11-06T02:08:16.193Z,1.77
2022-11-06T02:10:44.067Z,1.40
2022-11-06T02:13:16.707Z,1.60
2022-11-06T02:16:03.157Z,1.30
2022-11-06T02:18:55.778Z,1.83
2022-11-06T02:21:41.414Z,1.70
2022-11-06T02:24:11.014Z,1.42
2022-11-06T02:26:55.107Z,1.27
2022-11-06T02:29:38.253Z,1.48
2022-11-06T02:32:11.311Z,1.15
2022-11-06T02:34:40.043Z,1.55
2022-11-06T02:37:19.139Z,1.55
2022-11-06T02:39:48.573Z,1.58
2022-11-06T02:42:18.407Z,1.52
2022-11-06T02:44:50.354Z,1.52
2022-11-06T02:47:19.320Z,1.70
2022-11-06T02:49:54.979Z,1.83
2022-11-06T02:52:26.574Z,1.35
2022-11-06T02:55:02.257Z,1.55
2022-11-06T02:57:31.972Z,1.73
2022-11-06T03:00:09.595Z,1.90
2022-11-06T03:02:41.105Z,1.70
2022-11-06T03:05:22.704Z,1.70
2022-11-06T03:07:59.259Z,1.95
2022-11-06T03:10:31.997Z,1.70
2022-11-06T03:13:07.766Z,1.30
2022-11-06T03:15:36.917Z,1.85
2022-11-06T03:18:18.074Z,1.38
2022-11-06T03:20:59.821Z,1.48
2022-11-06T03:23:42.348Z,1.45
2022-11-06T03:26:22.437Z,1.50
2022-11-06T03:28:56.942Z,1.30
2022-11-06T03:31:32.602Z,1.63
2022-11-06T03:34:04.932Z,1.50
2022-11-06T03:36:36.809Z,1.67
2022-11-06T03:39:08.930Z,1.50
2022-11-06T03:41:48.141Z,1.25
2022-11-06T03:44:18.194Z,1.30
2022-11-06T03:46:50.276Z,1.25
2022-11-06T03:49:22.969Z,1.50
2022-11-06T03:51:58.468Z,1.70
2022-11-06T03:54:34.398Z,1.70
2022-11-06T03:57:09.113Z,1.50
2022-11-06T03:59:44.690Z,1.50
2022-11-06T04:02:14.285Z,1.27
2022-11-06T04:04:50.424Z,1.70
2022-11-06T04:07:22.393Z,1.60
2022-11-06T04:10:12.466Z,1.50
2022-11-06T04:13:00.506Z,1.83
2022-11-06T04:15:32.926Z,1.23
2022-11-06T04:17:59.465Z,1.30
2022-11-06T04:20:56.210Z,1.38
2022-11-06T04:23:43.940Z,1.40
2022-11-06T04:26:35.839Z,1.38
2022-11-06T04:29:26.756Z,1.48
2022-11-06T04:32:05.817Z,1.65
2022-11-06T04:35:12.472Z,1.77
2022-11-06T04:37:53.876Z,1.20
2022-11-06T04:40:31.619Z,1.35
2022-11-06T04:46:17.484Z,1.52
2022-11-06T04:48:45.795Z,1.48
2022-11-06T04:51:13.959Z,1.45
2022-11-06T04:53:42.096Z,1.30
2022-11-06T04:56:17.501Z,1.50
2022-11-06T04:58:46.601Z,1.20
2022-11-06T05:01:13.195Z,1.35
2022-11-06T05:03:39.638Z,1.50
2022-11-06T05:06:06.361Z,1.30
2022-11-06T05:08:32.804Z,1.85
2022-11-06T05:10:59.366Z,1.50
2022-11-06T05:13:25.943Z,1.27
2022-11-06T05:16:00.150Z,1.73
2022-11-06T05:18:27.573Z,1.50
2022-11-06T05:21:14.326Z,1.42
2022-11-06T05:23:41.041Z,1.55
2022-11-06T05:26:08.424Z,1.58
2022-11-06T05:28:35.010Z,1.60
2022-11-06T05:31:01.649Z,1.33
2022-11-06T05:33:28.172Z,1.73
2022-11-06T05:35:54.724Z,1.33
2022-11-06T05:38:21.174Z,1.60
2022-11-06T05:40:47.729Z,1.52
2022-11-06T05:43:14.178Z,1.50
2022-11-06T05:45:40.614Z,1.50
2022-11-06T05:48:07.096Z,1.40
2022-11-06T05:50:33.538Z,1.13
2022-11-06T05:53:00.556Z,1.40
2022-11-06T05:55:27.004Z,1.48
2022-11-06T05:57:53.473Z,1.67
2022-11-06T06:00:20.075Z,1.50
2022-11-06T06:02:46.835Z,1.25
2022-11-06T06:05:14.755Z,1.30
2022-11-06T06:07:41.445Z,1.45
2022-11-06T06:10:08.945Z,1.42
2022-11-06T06:12:35.594Z,1.58
2022-11-06T06:15:02.063Z,1.83
2022-11-06T06:17:28.513Z,1.60
2022-11-06T06:19:54.941Z,1.40
2022-11-06T06:22:21.386Z,1.30
2022-11-06T06:24:48.136Z,1.33
2022-11-06T06:27:15.075Z,1.38
2022-11-06T06:29:41.814Z,1.30
2022-11-06T06:32:08.269Z,1.40
2022-11-06T06:34:35.206Z,1.23
2022-11-06T06:37:02.762Z,1.38
2022-11-06T06:39:31.053Z,1.42
2022-11-06T06:41:57.538Z,1.05
2022-11-06T06:44:24.081Z,1.10
2022-11-06T06:46:50.859Z,1.23
2022-11-06T06:49:17.409Z,1.23
2022-11-06T06:51:43.958Z,1.10
2022-11-06T06:54:10.445Z,1.20
2022-11-06T06:56:37.025Z,1.30
2022-11-06T06:59:03.532Z,1.13
2022-11-06T07:01:30.438Z,1.50
2022-11-06T07:04:02.803Z,1.02
2022-11-06T07:06:30.580Z,1.30
2022-11-06T07:08:57.199Z,1.05
2022-11-06T07:11:23.689Z,1.17
2022-11-06T07:13:50.166Z,1.00
2022-11-06T07:16:16.835Z,1.05
2022-11-06T07:18:43.422Z,1.30
2022-11-06T07:21:12.738Z,1.30
2022-11-06T07:23:39.959Z,1.20
2022-11-06T07:26:07.302Z,0.95
2022-11-06T07:28:33.984Z,1.08
2022-11-06T07:31:02.776Z,1.30
2022-11-06T07:33:30.046Z,1.30
2022-11-06T07:35:56.592Z,1.10
2022-11-06T07:38:23.070Z,1.33
2022-11-06T07:40:49.704Z,1.20
2022-11-06T07:43:16.310Z,1.23
2022-11-06T07:45:42.833Z,1.15
2022-11-06T07:48:09.363Z,1.02
2022-11-06T07:50:35.814Z,1.15
2022-11-06T07:53:03.421Z,0.90
2022-11-06T07:55:30.242Z,1.20
2022-11-06T07:57:58.835Z,1.02
2022-11-06T08:00:25.556Z,1.20
2022-11-06T08:02:53.400Z,1.23
2022-11-06T08:05:20.447Z,1.38
2022-11-06T08:07:47.114Z,0.98
2022-11-06T08:10:13.777Z,1.10
2022-11-06T08:12:40.471Z,1.15
2022-11-06T08:15:07.532Z,1.30
2022-11-06T08:17:34.030Z,1.10
2022-11-06T08:20:00.507Z,1.40
2022-11-06T08:22:26.966Z,1.15
2022-11-06T08:24:53.446Z,1.20
2022-11-06T08:27:20.149Z,1.00
2022-11-06T08:29:46.794Z,1.30
2022-11-06T08:32:13.254Z,1.30
2022-11-06T08:34:39.698Z,1.15
2022-11-06T08:37:06.217Z,1.00
2022-11-06T08:39:32.666Z,1.10
2022-11-06T08:41:59.345Z,1.00
2022-11-06T08:44:25.816Z,1.15
2022-11-06T08:46:52.538Z,0.82
2022-11-06T08:49:19.761Z,1.30
2022-11-06T08:51:46.276Z,1.30
2022-11-06T08:54:13.166Z,1.27
2022-11-06T08:56:39.650Z,0.93
2022-11-06T08:59:06.234Z,1.20
2022-11-06T09:01:32.882Z,1.00
2022-11-06T09:03:59.384Z,0.98
2022-11-06T09:06:26.169Z,1.23
2022-11-06T09:08:52.690Z,0.98
2022-11-06T09:11:19.157Z,1.17
2022-11-06T09:13:45.630Z,1.23
2022-11-06T09:16:15.841Z,1.25
2022-11-06T09:21:09.704Z,1.17
2022-11-06T09:23:36.279Z,1.20
2022-11-06T09:26:02.785Z,0.98
2022-11-06T09:28:29.250Z,1.10
2022-11-06T09:30:55.715Z,1.00
2022-11-06T09:33:22.265Z,0.95
2022-11-06T09:35:48.741Z,1.27
2022-11-06T09:38:19.063Z,1.27
2022-11-06T09:40:55.544Z,1.38
2022-11-06T09:44:05.254Z,1.00
2022-11-06T09:46:53.886Z,1.30
2022-11-06T09:49:36.159Z,1.00
2022-11-06T09:52:05.696Z,1.25
2022-11-06T09:54:50.731Z,1.10
2022-11-06T09:57:24.614Z,1.25
2022-11-06T09:59:51.557Z,1.17
2022-11-06T10:05:50.499Z,1.20
2022-11-06T10:08:22.668Z,1.02
2022-11-06T10:10:57.867Z,1.20
2022-11-06T10:13:46.259Z,1.15
2022-11-06T10:16:12.727Z,1.00
2022-11-06T10:18:54.134Z,1.10
2022-11-06T10:30:22.141Z,1.08
2022-11-06T10:36:45.055Z,1.17
2022-11-06T10:39:32.085Z,1.10
2022-11-06T10:42:06.074Z,1.20
2022-11-06T10:44:39.778Z,1.38
2022-11-06T10:47:15.491Z,1.10
2022-11-06T10:49:49.840Z,1.05
2022-11-06T10:52:30.695Z,1.08
2022-11-06T10:55:15.132Z,1.20
2022-11-06T10:57:44.696Z,1.10
2022-11-06T11:00:15.652Z,1.10
2022-11-06T11:03:05.872Z,1.08
2022-11-06T11:05:43.830Z,1.10
2022-11-06T11:08:28.908Z,0.88
2022-11-06T11:14:03.058Z,0.80
2022-11-06T11:16:34.375Z,1.30
2022-11-06T11:19:22.221Z,0.70
2022-11-06T11:22:03.772Z,1.30
2022-11-06T11:24:30.740Z,1.00
2022-11-06T11:27:01.924Z,1.00
2022-11-06T11:29:45.025Z,1.05
2022-11-06T11:32:15.978Z,1.20
2022-11-06T11:34:53.917Z,1.17
2022-11-06T11:37:28.662Z,1.15
2022-11-06T11:40:16.440Z,1.60
2022-11-06T11:42:43.162Z,1.13
2022-11-06T11:45:09.767Z,1.00
2022-11-06T11:47:38.502Z,1.17
2022-11-06T11:50:31.626Z,1.10
2022-11-06T11:53:01.456Z,1.33
2022-11-06T11:55:30.578Z,1.10
2022-11-06T11:58:00.120Z,1.17
2022-11-06T12:00:28.729Z,1.25
2022-11-06T12:03:06.999Z,0.98
2022-11-06T12:05:38.251Z,1.25
2022-11-06T12:08:06.189Z,1.05
2022-11-06T12:10:39.128Z,0.95
2022-11-06T12:13:21.658Z,1.17
2022-11-06T12:15:55.188Z,1.20
2022-11-06T12:18:33.550Z,1.02
2022-11-06T12:21:07.120Z,1.08
2022-11-06T12:24:01.901Z,1.30
2022-11-06T12:26:51.782Z,1.00
2022-11-06T12:29:44.327Z,1.07
2022-11-06T12:32:23.787Z,1.13
2022-11-06T12:34:50.541Z,1.05
2022-11-06T12:37:38.414Z,1.10
2022-11-06T12:43:39.949Z,1.13
2022-11-06T12:46:12.132Z,1.05
2022-11-06T12:49:09.744Z,1.00
2022-11-06T12:51:48.440Z,0.98
2022-11-06T12:54:24.712Z,0.85
2022-11-06T12:57:06.450Z,0.88
2022-11-06T12:59:39.012Z,0.90
2022-11-06T13:02:23.899Z,0.82
2022-11-06T13:05:13.352Z,0.80
2022-11-06T13:08:11.655Z,0.80
2022-11-06T13:10:58.802Z,0.98
2022-11-06T13:13:37.498Z,0.70
2022-11-06T13:16:13.312Z,1.10
2022-11-06T13:18:43.112Z,1.20
2022-11-06T13:21:20.598Z,0.90
2022-11-06T13:24:01.419Z,1.00
2022-11-06T13:26:42.661Z,1.25
2022-11-06T13:29:13.937Z,0.82
2022-11-06T13:31:47.174Z,1.40
2022-11-06T13:34:26.686Z,1.10
2022-11-06T13:36:55.373Z,0.95
2022-11-06T13:39:45.078Z,1.10
2022-11-06T13:42:22.528Z,1.08
2022-11-06T13:44:50.082Z,0.88
2022-11-06T13:47:37.936Z,1.17
2022-11-06T13:50:19.007Z,0.88
2022-11-06T13:53:03.554Z,1.23
2022-11-06T13:55:49.676Z,1.10
2022-11-06T13:58:22.195Z,0.95
2022-11-06T14:00:56.062Z,1.20
2022-11-06T14:03:28.533Z,1.00
2022-11-06T14:06:04.122Z,0.93
2022-11-06T14:08:33.428Z,0.90
2022-11-06T14:11:04.813Z,1.10
2022-11-06T14:13:34.253Z,1.00
2022-11-06T14:19:01.364Z,1.33
2022-11-06T14:21:36.880Z,1.02
2022-11-06T14:24:13.683Z,1.00
2022-11-06T14:26:50.195Z,1.48
2022-11-06T14:29:42.539Z,0.98
2022-11-06T14:32:32.049Z,1.00
2022-11-06T14:35:33.458Z,0.95
2022-11-06T14:38:28.806Z,1.20
2022-11-06T14:40:55.729Z,0.90
2022-11-06T14:43:32.314Z,1.00
2022-11-06T14:46:04.239Z,1.10
2022-11-06T14:48:35.327Z,0.85
2022-11-06T14:51:05.570Z,0.95
2022-11-06T14:53:37.675Z,1.10
2022-11-06T14:56:10.058Z,1.00
2022-11-06T14:58:40.282Z,0.95
2022-11-06T15:01:09.938Z,0.88
2022-11-06T15:03:54.065Z,1.27
2022-11-06T15:06:34.611Z,0.90
2022-11-06T15:09:07.051Z,0.90
2022-11-06T15:11:34.205Z,0.70
2022-11-06T15:14:04.903Z,0.93
2022-11-06T15:16:43.905Z,1.00
2022-11-06T15:19:34.358Z,0.77
2022-11-06T15:22:13.736Z,1.00
2022-11-06T15:24:49.169Z,0.82
2022-11-06T15:27:19.226Z,0.90
2022-11-06T15:29:50.248Z,0.88
2022-11-06T15:32:23.256Z,1.20
2022-11-06T15:35:01.330Z,0.77
2022-11-06T15:37:32.501Z,0.93
2022-11-06T15:40:01.248Z,0.88
2022-11-06T15:42:31.139Z,0.93
2022-11-06T15:45:23.910Z,0.93
2022-11-06T15:48:04.924Z,0.95
2022-11-06T15:50:36.974Z,0.70
2022-11-06T15:53:40.940Z,0.80
2022-11-06T15:56:09.328Z,0.80
2022-11-06T15:58:37.827Z,0.70
2022-11-06T16:01:06.570Z,0.80
2022-11-06T16:03:52.544Z,0.70
2022-11-06T16:06:20.237Z,0.80
2022-11-06T16:08:48.685Z,1.10
2022-11-06T16:11:18.889Z,0.85
2022-11-06T16:13:49.284Z,0.93
2022-11-06T16:16:35.663Z,0.75
2022-11-06T16:19:06.453Z,1.00
2022-11-06T16:21:35.899Z,0.90
2022-11-06T16:24:10.201Z,0.70
2022-11-06T16:26:45.691Z,1.00
2022-11-06T16:29:19.452Z,0.80
2022-11-06T16:31:48.292Z,0.70
2022-11-06T16:34:46.488Z,0.88
2022-11-06T16:37:15.643Z,0.90
2022-11-06T16:39:53.059Z,0.98
2022-11-06T16:42:22.811Z,0.70
2022-11-06T16:44:50.988Z,0.90
2022-11-06T16:47:20.203Z,1.08
2022-11-06T16:49:54.668Z,1.00
2022-11-06T16:52:26.517Z,0.80
2022-11-06T16:55:04.025Z,0.77
2022-11-06T16:57:53.118Z,0.73
2022-11-06T17:00:19.673Z,1.02
2022-11-06T17:02:51.180Z,1.08
2022-11-06T17:05:38.309Z,1.23
2022-11-06T17:08:27.888Z,0.98
2022-11-06T17:10:56.724Z,0.82
2022-11-06T17:13:27.830Z,1.17
2022-11-06T17:15:58.857Z,0.90
2022-11-06T17:18:30.994Z,1.23
2022-11-06T17:21:02.250Z,0.90
2022-11-06T17:23:30.330Z,0.90
2022-11-06T17:26:02.080Z,0.85
2022-11-06T17:28:28.690Z,0.98
2022-11-06T17:30:55.334Z,1.00
2022-11-06T17:33:22.386Z,0.82
2022-11-06T17:35:49.609Z,1.15
2022-11-06T17:38:18.132Z,0.98
2022-11-06T17:40:45.727Z,1.00
2022-11-06T17:43:12.577Z,0.80
2022-11-06T17:45:42.198Z,0.90
2022-11-06T17:48:08.748Z,0.80
2022-11-06T17:50:55.279Z,0.90
2022-11-06T17:53:21.842Z,0.80
2022-11-06T17:55:48.472Z,0.90
2022-11-06T17:58:15.510Z,1.17
2022-11-06T18:00:42.870Z,1.13
2022-11-06T18:03:17.785Z,1.00
2022-11-06T18:05:44.551Z,0.98
2022-11-06T18:08:13.261Z,1.00
2022-11-06T18:10:40.966Z,1.02
2022-11-06T18:13:07.548Z,1.10
2022-11-06T18:15:35.551Z,1.00
2022-11-06T18:18:02.144Z,1.20
2022-11-06T18:20:28.678Z,1.02
2022-11-06T18:22:55.248Z,1.17
2022-11-06T18:25:21.738Z,1.25
2022-11-06T18:27:48.231Z,1.10
2022-11-06T18:30:14.776Z,1.00
2022-11-06T18:32:41.376Z,1.00
2022-11-06T18:35:08.418Z,1.00
2022-11-06T18:37:34.938Z,1.17
2022-11-06T18:40:01.433Z,1.00
2022-11-06T18:42:28.225Z,1.20
2022-11-06T18:44:54.866Z,1.00
2022-11-06T18:47:21.321Z,1.17
2022-11-06T18:49:48.585Z,1.30
2022-11-06T18:52:27.753Z,1.13
2022-11-06T18:55:01.678Z,1.00
2022-11-06T18:57:29.501Z,1.05
2022-11-06T18:59:56.149Z,1.20
2022-11-06T19:02:22.704Z,0.90
2022-11-06T19:04:49.358Z,1.45
2022-11-06T19:07:15.885Z,1.23
2022-11-06T19:09:42.518Z,0.93
2022-11-06T19:12:09.052Z,1.00
2022-11-06T19:14:35.608Z,1.10
2022-11-06T19:17:02.093Z,1.00
2022-11-06T19:19:28.587Z,0.88
2022-11-06T19:21:55.087Z,1.30
2022-11-06T19:24:22.326Z,1.30
2022-11-06T19:26:50.276Z,0.85
2022-11-06T19:29:17.155Z,1.20
2022-11-06T19:31:43.816Z,1.13
2022-11-06T19:34:12.917Z,1.30
2022-11-06T19:36:39.621Z,1.10
2022-11-06T19:39:07.403Z,1.27
2022-11-06T19:41:34.417Z,1.40
2022-11-06T19:44:01.012Z,1.05
2022-11-06T19:46:33.966Z,1.25
2022-11-06T19:49:03.544Z,1.30
2022-11-06T19:51:30.725Z,1.15
2022-11-06T19:53:57.386Z,1.33
2022-11-06T19:56:23.947Z,1.17
2022-11-06T19:58:51.689Z,1.45
2022-11-06T20:01:19.716Z,1.60
2022-11-06T20:03:46.689Z,1.08
2022-11-06T20:06:13.680Z,1.00
2022-11-06T20:08:40.420Z,1.33
2022-11-06T20:11:15.316Z,1.40
2022-11-06T20:13:43.304Z,1.33
2022-11-06T20:16:12.788Z,1.27
2022-11-06T20:18:39.573Z,1.40
2022-11-06T20:21:08.525Z,1.35
2022-11-06T20:23:35.307Z,1.42
2022-11-06T20:26:02.112Z,1.40
2022-11-06T20:28:28.721Z,1.40
2022-11-06T20:30:56.279Z,1.20
2022-11-06T20:33:23.359Z,1.10
2022-11-06T20:35:49.877Z,1.33
2022-11-06T20:38:16.360Z,1.20
2022-11-06T20:40:43.138Z,1.20
2022-11-06T20:43:10.112Z,1.40
2022-11-06T20:45:37.599Z,1.27
2022-11-06T20:48:05.606Z,1.33
2022-11-06T20:50:32.430Z,1.40
2022-11-06T20:52:58.911Z,1.48
2022-11-06T20:55:25.413Z,1.00
2022-11-06T20:57:51.905Z,1.25
2022-11-06T21:00:18.669Z,1.30
2022-11-06T21:02:46.527Z,1.15
2022-11-06T21:05:14.927Z,1.17
2022-11-06T21:07:41.674Z,1.38
2022-11-06T21:10:10.078Z,1.33
2022-11-06T21:12:36.651Z,1.35
2022-11-06T21:15:03.397Z,1.30
2022-11-06T21:17:29.842Z,1.20
2022-11-06T21:19:56.344Z,1.50
2022-11-06T21:22:22.901Z,1.40
2022-11-06T21:24:49.482Z,1.40
2022-11-06T21:27:15.947Z,1.30
2022-11-06T21:29:42.428Z,1.27
2022-11-06T21:32:09.065Z,1.35
2022-11-06T21:34:35.502Z,1.30
2022-11-06T21:37:03.047Z,1.10
2022-11-06T21:39:35.657Z,1.27
2022-11-06T21:42:03.195Z,1.33
2022-11-06T21:44:29.638Z,1.00
2022-11-06T21:46:56.108Z,1.30
2022-11-06T21:49:22.570Z,1.20
2022-11-06T21:51:49.152Z,1.10
2022-11-06T21:54:34.122Z,1.20
2022-11-06T21:57:00.704Z,1.15
2022-11-06T21:59:28.852Z,1.20
2022-11-06T22:01:55.807Z,1.30
2022-11-06T22:04:22.460Z,1.17
2022-11-06T22:06:48.905Z,1.17
2022-11-06T22:09:18.382Z,1.23
2022-11-06T22:11:47.247Z,1.40
2022-11-06T22:14:15.747Z,1.20
2022-11-06T22:16:44.493Z,1.25
2022-11-06T22:19:11.805Z,1.20
2022-11-06T22:21:39.859Z,0.90
2022-11-06T22:24:07.541Z,1.10
2022-11-06T22:26:35.713Z,1.67
2022-11-06T22:29:06.334Z,1.52
2022-11-06T22:31:32.818Z,1.13
2022-11-06T22:33:59.607Z,1.33
2022-11-06T22:36:26.699Z,1.00
2022-11-06T22:38:53.539Z,1.17
2022-11-06T22:41:23.764Z,1.10
2022-11-06T22:43:51.202Z,1.08
2022-11-06T22:46:22.495Z,1.20
2022-11-06T22:48:50.804Z,1.30
2022-11-06T22:51:21.160Z,1.10
2022-11-06T22:53:47.665Z,1.13
2022-11-06T22:56:14.223Z,1.10
2022-11-06T22:58:41.788Z,0.90
2022-11-06T23:01:09.831Z,1.20
2022-11-06T23:03:36.818Z,1.10
2022-11-06T23:06:06.161Z,1.10
2022-11-06T23:08:33.141Z,0.80
2022-11-06T23:11:05.697Z,1.35
2022-11-06T23:13:32.146Z,0.90
2022-11-06T23:16:10.803Z,1.00
2022-11-06T23:18:37.483Z,1.17
2022-11-06T23:21:18.795Z,1.30
2022-11-06T23:23:46.034Z,1.15
2022-11-06T23:26:18.311Z,1.20
2022-11-06T23:28:45.635Z,1.17
2022-11-06T23:31:14.370Z,1.10
2022-11-06T23:33:41.617Z,1.30
2022-11-06T23:36:13.633Z,1.05
2022-11-06T23:38:40.667Z,0.95
2022-11-06T23:41:27.490Z,1.20
2022-11-06T23:43:55.126Z,0.80
2022-11-06T23:46:23.429Z,1.10
2022-11-06T23:48:50.265Z,1.17
2022-11-06T23:51:16.869Z,1.17
2022-11-06T23:53:43.440Z,1.10
2022-11-06T23:56:11.539Z,1.30
2022-11-06T23:58:39.146Z,1.00
